Nyk Orpheus — 7JDN — position and weather

sailwx.info

Track history (hours):
 
Tides and Currents Weather Stations Pressure Air Temp Water Temp Dewpoint Dewpoint Depression Visibility Wind Speed Wind Dir Waves Ship Positions

Nyk Orpheus

Last reported at 2014-Sep-22 13:33 UTC. Time now 2014-Sep-22 14:15 UTC.
Position N 01°16' E 103°51'.

Length 336 m; draft 12.6 m.

Type: Other ship. MMSI: 432657000.

Date/timePositionNaut miles runAvg speedWind from/ knotsBaromVisibWave heightAir tempDewpointWater temp
2014-Sep-22 13:33N 01°16' E 103°51'0 0.0
2014-Sep-22 12:33N 01°16' E 103°51'0 0.0
2014-Sep-22 11:33N 01°16' E 103°51'0 0.0
2014-Sep-22 10:33N 01°16' E 103°51'0 0.0
2014-Sep-22 09:33N 01°16' E 103°51'0 0.0
2014-Sep-22 08:33N 01°16' E 103°51'2 1.5
2014-Sep-22 07:33N 01°15' E 103°52'5 5.2
2014-Sep-22 06:33N 01°14' E 103°57'1111.2
2014-Sep-22 05:32N 01°17' E 104°08'  
2014-Sep-18 20:14N 22°15' E 114°07'5 6.5
2014-Sep-18 19:29N 22°20' E 114°07'0 0.0
2014-Sep-18 02:23N 22°20' E 114°08'5 4.3
2014-Sep-18 01:16N 22°15' E 114°08'6 7.0
2014-Sep-18 00:23N 22°10' E 114°12'2 1.6
2014-Sep-17 23:26N 22°10' E 114°10'0 0.0
2014-Sep-17 22:32N 22°10' E 114°10'0 0.3
2014-Sep-17 21:33N 22°10' E 114°11'6 5.1
2014-Sep-17 20:24N 22°15' E 114°07'1310.1
2014-Sep-17 19:09N 22°21' E 113°55'4 6.2
2014-Sep-17 18:34N 22°25' E 113°53'3 2.6
2014-Sep-17 17:33N 22°27' E 113°54'0 0.0
2014-Sep-17 16:27N 22°27' E 113°54'0 0.0
2014-Sep-17 15:33N 22°27' E 113°54'0 0.0
2014-Sep-17 14:33N 22°27' E 113°54'0 0.0
2014-Sep-17 13:33N 22°27' E 113°54'0 0.0
2014-Sep-17 12:33N 22°27' E 113°54'0 0.0
2014-Sep-17 11:33N 22°27' E 113°54'0 0.0
2014-Sep-17 10:33N 22°27' E 113°54'0 0.0
2014-Sep-17 09:33N 22°27' E 113°54'0 0.0
2014-Sep-17 08:33N 22°27' E 113°54'0 0.0
2014-Sep-17 07:33N 22°27' E 113°54'0 0.0
2014-Sep-17 06:33N 22°27' E 113°54'0 0.0
2014-Sep-17 05:33N 22°27' E 113°54'0 0.0
2014-Sep-17 04:33N 22°27' E 113°54'2 2.0
2014-Sep-17 03:33N 22°25' E 113°53'8 7.6
2014-Sep-17 02:32N 22°21' E 114°00'10 9.6
2014-Sep-17 01:31N 22°14' E 114°08'15 6.9
2014-Sep-16 23:19N 22°09' E 114°23'16 0.4
2014-Sep-15 02:12N 22°15' E 114°07'31913.5
2014-Sep-14 02:33N 24°28' E 119°23'33319.3
2014-Sep-13 09:17N 29°15' E 122°34'1620.3
2014-Sep-13 08:30N 29°31' E 122°36'1414.9
2014-Sep-13 07:33N 29°42' E 122°26'1211.7
2014-Sep-13 06:33N 29°48' E 122°14'1010.5
2014-Sep-13 05:33N 29°47' E 122°02'2 0.3
2014-Sep-12 23:19N 29°46' E 122°00'0 0.0
2014-Sep-12 22:25N 29°46' E 122°00'0 0.0
2014-Sep-12 21:25N 29°46' E 122°00'0 0.0
2014-Sep-12 20:19N 29°46' E 122°00'0 0.0
2014-Sep-12 16:05N 29°46' E 122°00'0 0.2
2014-Sep-12 14:18N 29°46' E 122°00'  
Track history (hours):
 
Tides and Currents Weather Stations Pressure Air Temp Water Temp Dewpoint Dewpoint Depression Visibility Wind Speed Wind Dir Waves Ship Positions

Nyk Orpheus

Last reported at 2014-Sep-22 13:33 UTC. Time now 2014-Sep-22 14:15 UTC.
Position N 01°16' E 103°51'.

Length 336 m; draft 12.6 m.

Type: Other ship. MMSI: 432657000.

Date/timePositionNaut miles runAvg speedWind from/ knotsBaromVisibWave heightAir tempDewpointWater temp
2014-Sep-22 13:33N 01°16' E 103°51'0 0.0
2014-Sep-22 12:33N 01°16' E 103°51'0 0.0
2014-Sep-22 11:33N 01°16' E 103°51'0 0.0
2014-Sep-22 10:33N 01°16' E 103°51'0 0.0
2014-Sep-22 09:33N 01°16' E 103°51'0 0.0
2014-Sep-22 08:33N 01°16' E 103°51'2 1.5
2014-Sep-22 07:33N 01°15' E 103°52'5 5.2
2014-Sep-22 06:33N 01°14' E 103°57'1111.2
2014-Sep-22 05:32N 01°17' E 104°08'  
2014-Sep-18 20:14N 22°15' E 114°07'5 6.5
2014-Sep-18 19:29N 22°20' E 114°07'0 0.0
2014-Sep-18 02:23N 22°20' E 114°08'5 4.3
2014-Sep-18 01:16N 22°15' E 114°08'6 7.0
2014-Sep-18 00:23N 22°10' E 114°12'2 1.6
2014-Sep-17 23:26N 22°10' E 114°10'0 0.0
2014-Sep-17 22:32N 22°10' E 114°10'0 0.3
2014-Sep-17 21:33N 22°10' E 114°11'6 5.1
2014-Sep-17 20:24N 22°15' E 114°07'1310.1
2014-Sep-17 19:09N 22°21' E 113°55'4 6.2
2014-Sep-17 18:34N 22°25' E 113°53'3 2.6
2014-Sep-17 17:33N 22°27' E 113°54'0 0.0
2014-Sep-17 16:27N 22°27' E 113°54'0 0.0
2014-Sep-17 15:33N 22°27' E 113°54'0 0.0
2014-Sep-17 14:33N 22°27' E 113°54'0 0.0
2014-Sep-17 13:33N 22°27' E 113°54'0 0.0
2014-Sep-17 12:33N 22°27' E 113°54'0 0.0
2014-Sep-17 11:33N 22°27' E 113°54'0 0.0
2014-Sep-17 10:33N 22°27' E 113°54'0 0.0
2014-Sep-17 09:33N 22°27' E 113°54'0 0.0
2014-Sep-17 08:33N 22°27' E 113°54'0 0.0
2014-Sep-17 07:33N 22°27' E 113°54'0 0.0
2014-Sep-17 06:33N 22°27' E 113°54'0 0.0
2014-Sep-17 05:33N 22°27' E 113°54'0 0.0
2014-Sep-17 04:33N 22°27' E 113°54'2 2.0
2014-Sep-17 03:33N 22°25' E 113°53'8 7.6
2014-Sep-17 02:32N 22°21' E 114°00'10 9.6
2014-Sep-17 01:31N 22°14' E 114°08'15 6.9
2014-Sep-16 23:19N 22°09' E 114°23'16 0.4
2014-Sep-15 02:12N 22°15' E 114°07'31913.5
2014-Sep-14 02:33N 24°28' E 119°23'33319.3
2014-Sep-13 09:17N 29°15' E 122°34'1620.3
2014-Sep-13 08:30N 29°31' E 122°36'1414.9
2014-Sep-13 07:33N 29°42' E 122°26'1211.7
2014-Sep-13 06:33N 29°48' E 122°14'1010.5
2014-Sep-13 05:33N 29°47' E 122°02'2 0.3
2014-Sep-12 23:19N 29°46' E 122°00'0 0.0
2014-Sep-12 22:25N 29°46' E 122°00'0 0.0
2014-Sep-12 21:25N 29°46' E 122°00'0 0.0
2014-Sep-12 20:19N 29°46' E 122°00'0 0.0
2014-Sep-12 16:05N 29°46' E 122°00'0 0.2
2014-Sep-12 14:18N 29°46' E 122°00'  

Dump ship's entire track history